sensor_id;sensor_type;location;lat;lon;timestamp;temperature;humidity
61255;DHT22;47128;47.530;8.584;2022-07-22T00:00:25;19.70;99.00
61255;DHT22;47128;47.530;8.584;2022-07-22T00:02:51;19.50;98.80
61255;DHT22;47128;47.530;8.584;2022-07-22T00:05:16;19.50;98.60
61255;DHT22;47128;47.530;8.584;2022-07-22T00:07:42;19.50;98.80
61255;DHT22;47128;47.530;8.584;2022-07-22T00:10:08;19.40;99.20
61255;DHT22;47128;47.530;8.584;2022-07-22T00:12:37;19.50;99.30
61255;DHT22;47128;47.530;8.584;2022-07-22T00:15:04;19.30;99.40
61255;DHT22;47128;47.530;8.584;2022-07-22T00:17:30;19.30;99.30
61255;DHT22;47128;47.530;8.584;2022-07-22T00:19:56;19.50;99.90
61255;DHT22;47128;47.530;8.584;2022-07-22T00:22:21;19.30;98.80
61255;DHT22;47128;47.530;8.584;2022-07-22T00:24:47;19.30;99.50
61255;DHT22;47128;47.530;8.584;2022-07-22T00:27:12;19.30;99.30
61255;DHT22;47128;47.530;8.584;2022-07-22T00:29:38;19.30;99.40
61255;DHT22;47128;47.530;8.584;2022-07-22T00:32:04;19.20;99.70
61255;DHT22;47128;47.530;8.584;2022-07-22T00:34:29;19.10;99.70
61255;DHT22;47128;47.530;8.584;2022-07-22T00:36:55;19.10;99.60
61255;DHT22;47128;47.530;8.584;2022-07-22T00:39:21;19.10;99.30
61255;DHT22;47128;47.530;8.584;2022-07-22T00:41:47;19.10;99.40
61255;DHT22;47128;47.530;8.584;2022-07-22T00:44:13;19.10;99.50
61255;DHT22;47128;47.530;8.584;2022-07-22T00:46:39;19.00;99.80
61255;DHT22;47128;47.530;8.584;2022-07-22T00:49:06;19.00;99.90
61255;DHT22;47128;47.530;8.584;2022-07-22T00:51:33;19.00;99.90
61255;DHT22;47128;47.530;8.584;2022-07-22T00:54:00;18.90;99.90
61255;DHT22;47128;47.530;8.584;2022-07-22T00:56:26;19.00;99.90
61255;DHT22;47128;47.530;8.584;2022-07-22T00:58:54;18.90;99.90
61255;DHT22;47128;47.530;8.584;2022-07-22T01:01:20;18.80;99.90
61255;DHT22;47128;47.530;8.584;2022-07-22T01:03:46;18.80;99.90
61255;DHT22;47128;47.530;8.584;2022-07-22T01:06:11;18.70;99.90
61255;DHT22;47128;47.530;8.584;2022-07-22T01:08:37;18.70;99.90
61255;DHT22;47128;47.530;8.584;2022-07-22T01:11:12;18.80;99.90
61255;DHT22;47128;47.530;8.584;2022-07-22T01:13:38;18.70;99.90
61255;DHT22;47128;47.530;8.584;2022-07-22T01:16:05;18.70;99.90
61255;DHT22;47128;47.530;8.584;2022-07-22T01:18:31;18.70;99.90
61255;DHT22;47128;47.530;8.584;2022-07-22T01:20:57;18.70;99.90
61255;DHT22;47128;47.530;8.584;2022-07-22T01:23:23;18.70;99.90
61255;DHT22;47128;47.530;8.584;2022-07-22T01:25:49;18.70;99.90
61255;DHT22;47128;47.530;8.584;2022-07-22T01:28:15;18.70;99.90
61255;DHT22;47128;47.530;8.584;2022-07-22T01:30:40;18.80;99.90
61255;DHT22;47128;47.530;8.584;2022-07-22T01:33:06;18.70;99.90
61255;DHT22;47128;47.530;8.584;2022-07-22T01:35:32;18.60;99.90
61255;DHT22;47128;47.530;8.584;2022-07-22T01:37:57;18.60;99.90
61255;DHT22;47128;47.530;8.584;2022-07-22T01:40:23;18.50;99.90
61255;DHT22;47128;47.530;8.584;2022-07-22T01:42:49;18.50;99.90
61255;DHT22;47128;47.530;8.584;2022-07-22T01:45:14;18.50;99.90
61255;DHT22;47128;47.530;8.584;2022-07-22T01:47:40;18.40;99.90
61255;DHT22;47128;47.530;8.584;2022-07-22T01:50:08;18.40;99.90
61255;DHT22;47128;47.530;8.584;2022-07-22T01:52:34;18.40;99.90
61255;DHT22;47128;47.530;8.584;2022-07-22T01:55:00;18.40;99.90
61255;DHT22;47128;47.530;8.584;2022-07-22T01:57:26;18.40;99.90
61255;DHT22;47128;47.530;8.584;2022-07-22T01:59:51;18.50;99.90
61255;DHT22;47128;47.530;8.584;2022-07-22T02:02:17;18.50;99.90
61255;DHT22;47128;47.530;8.584;2022-07-22T02:04:42;18.40;99.90
61255;DHT22;47128;47.530;8.584;2022-07-22T02:07:08;18.40;99.90
61255;DHT22;47128;47.530;8.584;2022-07-22T02:09:34;18.40;99.90
61255;DHT22;47128;47.530;8.584;2022-07-22T02:11:59;18.30;99.90
61255;DHT22;47128;47.530;8.584;2022-07-22T02:14:25;18.30;99.90
61255;DHT22;47128;47.530;8.584;2022-07-22T02:16:51;18.20;99.90
61255;DHT22;47128;47.530;8.584;2022-07-22T02:19:17;18.30;99.90
61255;DHT22;47128;47.530;8.584;2022-07-22T02:21:42;18.30;99.90
61255;DHT22;47128;47.530;8.584;2022-07-22T02:24:08;18.30;99.90
61255;DHT22;47128;47.530;8.584;2022-07-22T02:26:33;18.20;99.90
61255;DHT22;47128;47.530;8.584;2022-07-22T02:29:00;18.10;99.90
61255;DHT22;47128;47.530;8.584;2022-07-22T02:31:25;18.10;99.90
61255;DHT22;47128;47.530;8.584;2022-07-22T02:33:51;18.10;99.90
61255;DHT22;47128;47.530;8.584;2022-07-22T02:36:17;18.20;99.90
61255;DHT22;47128;47.530;8.584;2022-07-22T02:38:43;18.10;99.90
61255;DHT22;47128;47.530;8.584;2022-07-22T02:41:08;18.10;99.90
61255;DHT22;47128;47.530;8.584;2022-07-22T02:43:34;17.90;99.90
61255;DHT22;47128;47.530;8.584;2022-07-22T02:45:59;17.90;99.90
61255;DHT22;47128;47.530;8.584;2022-07-22T02:48:25;18.00;99.90
61255;DHT22;47128;47.530;8.584;2022-07-22T02:50:51;18.00;99.90
61255;DHT22;47128;47.530;8.584;2022-07-22T02:53:16;17.90;99.90
61255;DHT22;47128;47.530;8.584;2022-07-22T02:55:42;18.00;99.90
61255;DHT22;47128;47.530;8.584;2022-07-22T02:58:08;18.10;99.90
61255;DHT22;47128;47.530;8.584;2022-07-22T03:00:36;17.90;99.90
61255;DHT22;47128;47.530;8.584;2022-07-22T03:03:05;17.90;99.90
61255;DHT22;47128;47.530;8.584;2022-07-22T03:05:31;17.90;99.90
61255;DHT22;47128;47.530;8.584;2022-07-22T03:07:57;17.80;99.90
61255;DHT22;47128;47.530;8.584;2022-07-22T03:10:22;17.80;99.90
61255;DHT22;47128;47.530;8.584;2022-07-22T03:12:48;17.80;99.90
61255;DHT22;47128;47.530;8.584;2022-07-22T03:15:14;17.80;99.90
61255;DHT22;47128;47.530;8.584;2022-07-22T03:17:40;17.80;99.90
61255;DHT22;47128;47.530;8.584;2022-07-22T03:20:07;17.90;99.90
61255;DHT22;47128;47.530;8.584;2022-07-22T03:22:33;17.90;99.90
61255;DHT22;47128;47.530;8.584;2022-07-22T03:24:59;17.90;99.90
61255;DHT22;47128;47.530;8.584;2022-07-22T03:27:25;17.80;99.90
61255;DHT22;47128;47.530;8.584;2022-07-22T03:29:51;17.70;99.90
61255;DHT22;47128;47.530;8.584;2022-07-22T03:32:17;17.70;99.90
61255;DHT22;47128;47.530;8.584;2022-07-22T03:34:43;17.70;99.90
61255;DHT22;47128;47.530;8.584;2022-07-22T03:37:09;17.70;99.90
61255;DHT22;47128;47.530;8.584;2022-07-22T03:39:34;17.70;99.90
61255;DHT22;47128;47.530;8.584;2022-07-22T03:42:00;17.60;99.90
61255;DHT22;47128;47.530;8.584;2022-07-22T03:44:26;17.60;99.90
61255;DHT22;47128;47.530;8.584;2022-07-22T03:46:51;17.50;99.90
61255;DHT22;47128;47.530;8.584;2022-07-22T03:49:17;17.60;99.90
61255;DHT22;47128;47.530;8.584;2022-07-22T03:51:43;17.50;99.90
61255;DHT22;47128;47.530;8.584;2022-07-22T03:54:08;17.60;99.90
61255;DHT22;47128;47.530;8.584;2022-07-22T03:56:34;17.70;99.90
61255;DHT22;47128;47.530;8.584;2022-07-22T03:59:00;17.70;99.90
61255;DHT22;47128;47.530;8.584;2022-07-22T04:01:25;17.60;99.90
61255;DHT22;47128;47.530;8.584;2022-07-22T04:03:51;17.50;99.90
61255;DHT22;47128;47.530;8.584;2022-07-22T04:06:17;17.50;99.90
61255;DHT22;47128;47.530;8.584;2022-07-22T04:08:42;17.40;99.90
61255;DHT22;47128;47.530;8.584;2022-07-22T04:11:08;17.40;99.90
61255;DHT22;47128;47.530;8.584;2022-07-22T04:13:34;17.50;99.90
61255;DHT22;47128;47.530;8.584;2022-07-22T04:16:01;17.70;99.90
61255;DHT22;47128;47.530;8.584;2022-07-22T04:18:27;17.70;99.90
61255;DHT22;47128;47.530;8.584;2022-07-22T04:20:54;17.60;99.90
61255;DHT22;47128;47.530;8.584;2022-07-22T04:23:20;17.60;99.90
61255;DHT22;47128;47.530;8.584;2022-07-22T04:25:45;17.50;99.90
61255;DHT22;47128;47.530;8.584;2022-07-22T04:28:11;17.50;99.90
61255;DHT22;47128;47.530;8.584;2022-07-22T04:30:37;17.60;99.90
61255;DHT22;47128;47.530;8.584;2022-07-22T04:33:03;17.60;99.90
61255;DHT22;47128;47.530;8.584;2022-07-22T04:35:28;17.50;99.90
61255;DHT22;47128;47.530;8.584;2022-07-22T04:37:54;17.50;99.90
61255;DHT22;47128;47.530;8.584;2022-07-22T04:40:19;17.60;99.90
61255;DHT22;47128;47.530;8.584;2022-07-22T04:42:45;17.50;99.90
61255;DHT22;47128;47.530;8.584;2022-07-22T04:45:11;17.60;99.90
61255;DHT22;47128;47.530;8.584;2022-07-22T04:47:37;17.60;99.90
61255;DHT22;47128;47.530;8.584;2022-07-22T04:50:02;17.70;99.90
61255;DHT22;47128;47.530;8.584;2022-07-22T04:52:28;17.70;99.90
61255;DHT22;47128;47.530;8.584;2022-07-22T04:54:54;17.70;99.90
61255;DHT22;47128;47.530;8.584;2022-07-22T04:57:19;17.70;99.90
61255;DHT22;47128;47.530;8.584;2022-07-22T04:59:45;17.80;99.90
61255;DHT22;47128;47.530;8.584;2022-07-22T05:02:11;17.90;99.90
61255;DHT22;47128;47.530;8.584;2022-07-22T05:04:36;18.00;99.90
61255;DHT22;47128;47.530;8.584;2022-07-22T05:07:02;18.00;99.90
61255;DHT22;47128;47.530;8.584;2022-07-22T05:09:28;18.00;99.90
61255;DHT22;47128;47.530;8.584;2022-07-22T05:11:54;18.20;99.90
61255;DHT22;47128;47.530;8.584;2022-07-22T05:14:19;18.30;99.90
61255;DHT22;47128;47.530;8.584;2022-07-22T05:16:45;18.60;99.90
61255;DHT22;47128;47.530;8.584;2022-07-22T05:19:11;18.80;99.90
61255;DHT22;47128;47.530;8.584;2022-07-22T05:21:36;19.10;99.90
61255;DHT22;47128;47.530;8.584;2022-07-22T05:24:02;19.30;99.90
61255;DHT22;47128;47.530;8.584;2022-07-22T05:26:29;19.50;99.60
61255;DHT22;47128;47.530;8.584;2022-07-22T05:28:56;19.70;99.20
61255;DHT22;47128;47.530;8.584;2022-07-22T05:31:22;19.80;98.90
61255;DHT22;47128;47.530;8.584;2022-07-22T05:33:48;19.80;98.80
61255;DHT22;47128;47.530;8.584;2022-07-22T05:38:39;20.00;98.30
61255;DHT22;47128;47.530;8.584;2022-07-22T05:41:05;20.00;98.40
61255;DHT22;47128;47.530;8.584;2022-07-22T05:43:31;20.00;98.30
61255;DHT22;47128;47.530;8.584;2022-07-22T05:45:57;20.20;98.30
61255;DHT22;47128;47.530;8.584;2022-07-22T05:48:23;21.00;97.80
61255;DHT22;47128;47.530;8.584;2022-07-22T05:50:48;21.90;96.20
61255;DHT22;47128;47.530;8.584;2022-07-22T05:53:14;22.90;94.60
61255;DHT22;47128;47.530;8.584;2022-07-22T05:55:40;24.50;91.60
61255;DHT22;47128;47.530;8.584;2022-07-22T05:58:05;25.00;90.20
61255;DHT22;47128;47.530;8.584;2022-07-22T06:00:32;25.50;87.40
61255;DHT22;47128;47.530;8.584;2022-07-22T06:02:58;25.50;87.30
61255;DHT22;47128;47.530;8.584;2022-07-22T06:05:24;25.20;86.00
61255;DHT22;47128;47.530;8.584;2022-07-22T06:07:49;24.30;88.10
61255;DHT22;47128;47.530;8.584;2022-07-22T06:10:20;23.90;90.10
61255;DHT22;47128;47.530;8.584;2022-07-22T06:12:46;24.10;90.20
61255;DHT22;47128;47.530;8.584;2022-07-22T06:17:38;26.30;83.50
61255;DHT22;47128;47.530;8.584;2022-07-22T06:20:04;26.80;82.50
61255;DHT22;47128;47.530;8.584;2022-07-22T06:22:32;27.90;80.20
61255;DHT22;47128;47.530;8.584;2022-07-22T06:24:58;28.70;77.50
61255;DHT22;47128;47.530;8.584;2022-07-22T06:27:25;29.60;72.70
61255;DHT22;47128;47.530;8.584;2022-07-22T06:29:51;29.70;72.80
61255;DHT22;47128;47.530;8.584;2022-07-22T06:32:16;30.10;72.50
61255;DHT22;47128;47.530;8.584;2022-07-22T06:34:42;30.50;70.20
61255;DHT22;47128;47.530;8.584;2022-07-22T06:37:09;30.70;69.70
61255;DHT22;47128;47.530;8.584;2022-07-22T06:39:35;30.70;68.80
61255;DHT22;47128;47.530;8.584;2022-07-22T06:42:01;30.80;68.70
61255;DHT22;47128;47.530;8.584;2022-07-22T06:44:27;31.60;67.00
61255;DHT22;47128;47.530;8.584;2022-07-22T06:46:55;31.90;66.10
61255;DHT22;47128;47.530;8.584;2022-07-22T06:49:20;32.30;64.90
61255;DHT22;47128;47.530;8.584;2022-07-22T06:51:46;32.50;63.80
61255;DHT22;47128;47.530;8.584;2022-07-22T06:54:12;32.20;63.70
61255;DHT22;47128;47.530;8.584;2022-07-22T06:56:38;32.60;63.40
61255;DHT22;47128;47.530;8.584;2022-07-22T06:59:04;33.20;62.10
61255;DHT22;47128;47.530;8.584;2022-07-22T07:01:30;33.40;60.70
61255;DHT22;47128;47.530;8.584;2022-07-22T07:03:58;33.10;61.30
61255;DHT22;47128;47.530;8.584;2022-07-22T07:06:24;32.80;61.20
61255;DHT22;47128;47.530;8.584;2022-07-22T07:08:50;33.10;61.00
61255;DHT22;47128;47.530;8.584;2022-07-22T07:11:20;33.10;60.80
61255;DHT22;47128;47.530;8.584;2022-07-22T07:13:46;33.40;60.50
61255;DHT22;47128;47.530;8.584;2022-07-22T07:16:11;32.70;60.80
61255;DHT22;47128;47.530;8.584;2022-07-22T07:18:37;31.50;62.00
61255;DHT22;47128;47.530;8.584;2022-07-22T07:21:04;30.90;63.30
61255;DHT22;47128;47.530;8.584;2022-07-22T07:23:29;30.70;63.60
61255;DHT22;47128;47.530;8.584;2022-07-22T07:25:55;30.40;64.40
61255;DHT22;47128;47.530;8.584;2022-07-22T07:28:22;30.00;64.70
61255;DHT22;47128;47.530;8.584;2022-07-22T07:30:48;29.40;66.00
61255;DHT22;47128;47.530;8.584;2022-07-22T07:33:14;29.40;66.10
61255;DHT22;47128;47.530;8.584;2022-07-22T07:35:40;29.10;66.90
61255;DHT22;47128;47.530;8.584;2022-07-22T07:38:05;29.00;67.50
61255;DHT22;47128;47.530;8.584;2022-07-22T07:40:31;29.00;67.40
61255;DHT22;47128;47.530;8.584;2022-07-22T07:43:01;29.10;67.60
61255;DHT22;47128;47.530;8.584;2022-07-22T07:45:26;29.10;67.30
61255;DHT22;47128;47.530;8.584;2022-07-22T07:47:59;29.30;67.40
61255;DHT22;47128;47.530;8.584;2022-07-22T07:50:28;29.40;67.70
61255;DHT22;47128;47.530;8.584;2022-07-22T07:52:55;29.30;68.00
61255;DHT22;47128;47.530;8.584;2022-07-22T07:55:24;29.30;68.20
61255;DHT22;47128;47.530;8.584;2022-07-22T07:57:52;28.90;68.30
61255;DHT22;47128;47.530;8.584;2022-07-22T08:00:24;29.00;68.90
61255;DHT22;47128;47.530;8.584;2022-07-22T08:02:57;28.90;68.70
61255;DHT22;47128;47.530;8.584;2022-07-22T08:05:23;28.90;68.80
61255;DHT22;47128;47.530;8.584;2022-07-22T08:07:50;29.20;68.20
61255;DHT22;47128;47.530;8.584;2022-07-22T08:10:17;29.00;69.00
61255;DHT22;47128;47.530;8.584;2022-07-22T08:12:44;28.60;70.50
61255;DHT22;47128;47.530;8.584;2022-07-22T08:15:11;28.50;70.60
61255;DHT22;47128;47.530;8.584;2022-07-22T08:17:37;28.50;70.30
61255;DHT22;47128;47.530;8.584;2022-07-22T08:20:05;28.50;70.30
61255;DHT22;47128;47.530;8.584;2022-07-22T08:22:31;28.50;70.50
61255;DHT22;47128;47.530;8.584;2022-07-22T08:24:57;28.60;70.10
61255;DHT22;47128;47.530;8.584;2022-07-22T08:27:24;28.90;70.20
61255;DHT22;47128;47.530;8.584;2022-07-22T08:29:51;29.10;69.30
61255;DHT22;47128;47.530;8.584;2022-07-22T08:32:25;29.40;69.30
61255;DHT22;47128;47.530;8.584;2022-07-22T08:34:51;29.40;69.00
61255;DHT22;47128;47.530;8.584;2022-07-22T08:37:17;29.40;70.00
61255;DHT22;47128;47.530;8.584;2022-07-22T08:39:48;29.00;70.00
61255;DHT22;47128;47.530;8.584;2022-07-22T08:42:16;29.20;69.40
61255;DHT22;47128;47.530;8.584;2022-07-22T08:44:43;29.30;69.80
61255;DHT22;47128;47.530;8.584;2022-07-22T08:47:10;30.00;69.10
61255;DHT22;47128;47.530;8.584;2022-07-22T08:49:39;30.70;68.00
61255;DHT22;47128;47.530;8.584;2022-07-22T08:52:08;31.00;67.50
61255;DHT22;47128;47.530;8.584;2022-07-22T08:54:35;30.90;67.60
61255;DHT22;47128;47.530;8.584;2022-07-22T08:57:00;30.70;67.50
61255;DHT22;47128;47.530;8.584;2022-07-22T08:59:27;30.60;67.50
61255;DHT22;47128;47.530;8.584;2022-07-22T09:02:07;30.50;67.90
61255;DHT22;47128;47.530;8.584;2022-07-22T09:04:54;30.20;68.10
61255;DHT22;47128;47.530;8.584;2022-07-22T09:07:35;29.90;68.90
61255;DHT22;47128;47.530;8.584;2022-07-22T09:10:07;29.80;69.00
61255;DHT22;47128;47.530;8.584;2022-07-22T09:12:34;29.80;69.70
61255;DHT22;47128;47.530;8.584;2022-07-22T09:15:01;30.00;69.40
61255;DHT22;47128;47.530;8.584;2022-07-22T09:17:35;30.30;68.90
61255;DHT22;47128;47.530;8.584;2022-07-22T09:20:16;30.40;69.10
61255;DHT22;47128;47.530;8.584;2022-07-22T09:22:46;30.40;68.50
61255;DHT22;47128;47.530;8.584;2022-07-22T09:27:51;30.10;68.50
61255;DHT22;47128;47.530;8.584;2022-07-22T09:30:21;30.00;68.20
61255;DHT22;47128;47.530;8.584;2022-07-22T09:32:53;30.20;68.80
61255;DHT22;47128;47.530;8.584;2022-07-22T09:35:26;29.80;69.10
61255;DHT22;47128;47.530;8.584;2022-07-22T09:37:56;29.70;69.70
61255;DHT22;47128;47.530;8.584;2022-07-22T09:40:30;29.70;69.80
61255;DHT22;47128;47.530;8.584;2022-07-22T09:43:01;29.90;69.70
61255;DHT22;47128;47.530;8.584;2022-07-22T09:45:30;30.10;69.60
61255;DHT22;47128;47.530;8.584;2022-07-22T09:47:57;30.30;68.90
61255;DHT22;47128;47.530;8.584;2022-07-22T09:50:38;30.40;68.70
61255;DHT22;47128;47.530;8.584;2022-07-22T09:53:03;30.70;67.90
61255;DHT22;47128;47.530;8.584;2022-07-22T09:55:30;30.90;67.50
61255;DHT22;47128;47.530;8.584;2022-07-22T09:57:57;31.20;67.50
61255;DHT22;47128;47.530;8.584;2022-07-22T10:00:25;31.30;67.60
61255;DHT22;47128;47.530;8.584;2022-07-22T10:02:56;31.30;66.30
61255;DHT22;47128;47.530;8.584;2022-07-22T10:05:30;31.30;66.50
61255;DHT22;47128;47.530;8.584;2022-07-22T10:07:57;31.30;67.20
61255;DHT22;47128;47.530;8.584;2022-07-22T10:10:29;31.20;67.30
61255;DHT22;47128;47.530;8.584;2022-07-22T10:12:57;31.30;67.40
61255;DHT22;47128;47.530;8.584;2022-07-22T10:15:25;31.40;66.50
61255;DHT22;47128;47.530;8.584;2022-07-22T10:17:55;31.40;65.40
61255;DHT22;47128;47.530;8.584;2022-07-22T10:20:26;31.30;65.40
61255;DHT22;47128;47.530;8.584;2022-07-22T10:22:58;31.10;65.00
61255;DHT22;47128;47.530;8.584;2022-07-22T10:25:26;31.10;65.70
61255;DHT22;47128;47.530;8.584;2022-07-22T10:28:00;31.50;66.00
61255;DHT22;47128;47.530;8.584;2022-07-22T10:30:35;31.40;65.40
61255;DHT22;47128;47.530;8.584;2022-07-22T10:33:08;31.40;64.60
61255;DHT22;47128;47.530;8.584;2022-07-22T10:35:36;31.30;62.80
61255;DHT22;47128;47.530;8.584;2022-07-22T10:38:05;31.30;62.50
61255;DHT22;47128;47.530;8.584;2022-07-22T10:43:14;31.50;62.50
61255;DHT22;47128;47.530;8.584;2022-07-22T10:46:00;31.70;62.10
61255;DHT22;47128;47.530;8.584;2022-07-22T10:51:16;31.60;61.80
61255;DHT22;47128;47.530;8.584;2022-07-22T10:56:31;31.60;61.90
61255;DHT22;47128;47.530;8.584;2022-07-22T10:59:07;31.70;62.20
61255;DHT22;47128;47.530;8.584;2022-07-22T11:01:37;31.70;61.50
61255;DHT22;47128;47.530;8.584;2022-07-22T11:06:41;31.90;61.50
61255;DHT22;47128;47.530;8.584;2022-07-22T11:09:10;32.00;60.90
61255;DHT22;47128;47.530;8.584;2022-07-22T11:11:40;32.10;60.40
61255;DHT22;47128;47.530;8.584;2022-07-22T11:14:12;32.30;59.90
61255;DHT22;47128;47.530;8.584;2022-07-22T11:16:39;32.20;59.30
61255;DHT22;47128;47.530;8.584;2022-07-22T11:19:06;32.00;59.40
61255;DHT22;47128;47.530;8.584;2022-07-22T11:21:32;31.90;59.80
61255;DHT22;47128;47.530;8.584;2022-07-22T11:24:02;32.10;59.40
61255;DHT22;47128;47.530;8.584;2022-07-22T11:26:45;32.30;58.50
61255;DHT22;47128;47.530;8.584;2022-07-22T11:29:29;32.40;58.50
61255;DHT22;47128;47.530;8.584;2022-07-22T11:31:58;32.20;58.40
61255;DHT22;47128;47.530;8.584;2022-07-22T11:34:27;32.40;58.40
61255;DHT22;47128;47.530;8.584;2022-07-22T11:36:55;32.50;58.60
61255;DHT22;47128;47.530;8.584;2022-07-22T11:39:26;32.70;58.10
61255;DHT22;47128;47.530;8.584;2022-07-22T11:41:56;32.70;58.10
61255;DHT22;47128;47.530;8.584;2022-07-22T11:44:32;32.80;58.20
61255;DHT22;47128;47.530;8.584;2022-07-22T11:46:58;33.00;58.00
61255;DHT22;47128;47.530;8.584;2022-07-22T11:49:27;32.90;57.00
61255;DHT22;47128;47.530;8.584;2022-07-22T11:51:53;32.80;57.60
61255;DHT22;47128;47.530;8.584;2022-07-22T11:54:19;33.10;57.50
61255;DHT22;47128;47.530;8.584;2022-07-22T11:56:45;33.30;57.10
61255;DHT22;47128;47.530;8.584;2022-07-22T11:59:15;33.50;57.30
61255;DHT22;47128;47.530;8.584;2022-07-22T12:01:45;33.40;56.70
61255;DHT22;47128;47.530;8.584;2022-07-22T12:04:21;33.20;56.10
61255;DHT22;47128;47.530;8.584;2022-07-22T12:06:48;33.00;55.50
61255;DHT22;47128;47.530;8.584;2022-07-22T12:09:23;33.00;56.10
61255;DHT22;47128;47.530;8.584;2022-07-22T12:11:52;33.20;55.90
61255;DHT22;47128;47.530;8.584;2022-07-22T12:14:24;33.70;55.70
61255;DHT22;47128;47.530;8.584;2022-07-22T12:19:31;34.10;54.50
61255;DHT22;47128;47.530;8.584;2022-07-22T12:25:03;33.70;53.10
61255;DHT22;47128;47.530;8.584;2022-07-22T12:27:30;33.40;53.10
61255;DHT22;47128;47.530;8.584;2022-07-22T12:29:56;33.40;54.30
61255;DHT22;47128;47.530;8.584;2022-07-22T12:35:05;33.40;54.90
61255;DHT22;47128;47.530;8.584;2022-07-22T12:37:43;33.40;53.50
61255;DHT22;47128;47.530;8.584;2022-07-22T12:40:18;33.40;53.70
61255;DHT22;47128;47.530;8.584;2022-07-22T12:43:02;33.60;54.60
61255;DHT22;47128;47.530;8.584;2022-07-22T12:45:34;33.70;53.60
61255;DHT22;47128;47.530;8.584;2022-07-22T12:50:55;33.80;53.30
61255;DHT22;47128;47.530;8.584;2022-07-22T12:53:27;34.00;52.50
61255;DHT22;47128;47.530;8.584;2022-07-22T12:55:59;34.20;52.60
61255;DHT22;47128;47.530;8.584;2022-07-22T12:58:35;34.30;51.80
61255;DHT22;47128;47.530;8.584;2022-07-22T13:01:06;34.40;52.30
61255;DHT22;47128;47.530;8.584;2022-07-22T13:03:32;34.50;52.40
61255;DHT22;47128;47.530;8.584;2022-07-22T13:06:04;34.70;52.20
61255;DHT22;47128;47.530;8.584;2022-07-22T13:08:30;35.00;52.30
61255;DHT22;47128;47.530;8.584;2022-07-22T13:10:57;35.10;52.30
61255;DHT22;47128;47.530;8.584;2022-07-22T13:13:23;35.20;51.90
61255;DHT22;47128;47.530;8.584;2022-07-22T13:15:49;35.30;51.70
61255;DHT22;47128;47.530;8.584;2022-07-22T13:18:16;35.50;52.50
61255;DHT22;47128;47.530;8.584;2022-07-22T13:20:45;34.90;51.40
61255;DHT22;47128;47.530;8.584;2022-07-22T13:23:13;34.80;51.90
61255;DHT22;47128;47.530;8.584;2022-07-22T13:25:39;34.30;52.10
61255;DHT22;47128;47.530;8.584;2022-07-22T13:28:06;34.30;52.30
61255;DHT22;47128;47.530;8.584;2022-07-22T13:30:32;34.50;52.30
61255;DHT22;47128;47.530;8.584;2022-07-22T13:33:03;34.50;52.40
61255;DHT22;47128;47.530;8.584;2022-07-22T13:35:29;34.50;52.50
61255;DHT22;47128;47.530;8.584;2022-07-22T13:38:04;34.40;52.30
61255;DHT22;47128;47.530;8.584;2022-07-22T13:40:35;34.70;52.60
61255;DHT22;47128;47.530;8.584;2022-07-22T13:43:00;34.70;51.90
61255;DHT22;47128;47.530;8.584;2022-07-22T13:45:26;35.00;50.30
61255;DHT22;47128;47.530;8.584;2022-07-22T13:47:52;34.80;50.00
61255;DHT22;47128;47.530;8.584;2022-07-22T13:50:18;34.50;49.70
61255;DHT22;47128;47.530;8.584;2022-07-22T13:52:44;34.60;50.40
61255;DHT22;47128;47.530;8.584;2022-07-22T13:55:17;34.60;50.30
61255;DHT22;47128;47.530;8.584;2022-07-22T13:57:42;34.70;51.70
61255;DHT22;47128;47.530;8.584;2022-07-22T14:00:23;34.70;50.60
61255;DHT22;47128;47.530;8.584;2022-07-22T14:02:49;34.80;49.90
61255;DHT22;47128;47.530;8.584;2022-07-22T14:05:15;34.70;49.60
61255;DHT22;47128;47.530;8.584;2022-07-22T14:07:42;34.80;49.60
61255;DHT22;47128;47.530;8.584;2022-07-22T14:10:09;34.90;49.10
61255;DHT22;47128;47.530;8.584;2022-07-22T14:12:34;34.90;49.10
61255;DHT22;47128;47.530;8.584;2022-07-22T14:15:00;35.00;49.50
61255;DHT22;47128;47.530;8.584;2022-07-22T14:17:26;35.20;49.20
61255;DHT22;47128;47.530;8.584;2022-07-22T14:19:52;35.00;49.10
61255;DHT22;47128;47.530;8.584;2022-07-22T14:22:23;35.00;49.80
61255;DHT22;47128;47.530;8.584;2022-07-22T14:24:52;35.30;50.30
61255;DHT22;47128;47.530;8.584;2022-07-22T14:27:20;35.20;48.80
61255;DHT22;47128;47.530;8.584;2022-07-22T14:29:46;34.80;49.30
61255;DHT22;47128;47.530;8.584;2022-07-22T14:32:15;34.70;49.60
61255;DHT22;47128;47.530;8.584;2022-07-22T14:34:41;34.90;49.90
61255;DHT22;47128;47.530;8.584;2022-07-22T14:37:09;35.00;50.60
61255;DHT22;47128;47.530;8.584;2022-07-22T14:39:42;35.00;50.20
61255;DHT22;47128;47.530;8.584;2022-07-22T14:42:11;35.20;49.40
61255;DHT22;47128;47.530;8.584;2022-07-22T14:44:37;35.40;49.60
61255;DHT22;47128;47.530;8.584;2022-07-22T14:47:02;35.60;48.70
61255;DHT22;47128;47.530;8.584;2022-07-22T14:49:28;35.70;48.10
61255;DHT22;47128;47.530;8.584;2022-07-22T14:51:55;35.70;49.30
61255;DHT22;47128;47.530;8.584;2022-07-22T14:54:21;35.50;48.80
61255;DHT22;47128;47.530;8.584;2022-07-22T14:56:47;35.70;47.70
61255;DHT22;47128;47.530;8.584;2022-07-22T14:59:12;35.70;47.10
61255;DHT22;47128;47.530;8.584;2022-07-22T15:01:38;35.80;47.50
61255;DHT22;47128;47.530;8.584;2022-07-22T15:04:04;35.80;47.20
61255;DHT22;47128;47.530;8.584;2022-07-22T15:06:30;36.00;46.90
61255;DHT22;47128;47.530;8.584;2022-07-22T15:08:56;36.10;46.80
61255;DHT22;47128;47.530;8.584;2022-07-22T15:11:23;36.00;49.00
61255;DHT22;47128;47.530;8.584;2022-07-22T15:13:48;35.70;45.50
61255;DHT22;47128;47.530;8.584;2022-07-22T15:16:14;35.40;45.80
61255;DHT22;47128;47.530;8.584;2022-07-22T15:18:40;35.50;45.10
61255;DHT22;47128;47.530;8.584;2022-07-22T15:21:06;35.20;44.60
61255;DHT22;47128;47.530;8.584;2022-07-22T15:23:31;35.20;44.70
61255;DHT22;47128;47.530;8.584;2022-07-22T15:25:58;35.40;44.20
61255;DHT22;47128;47.530;8.584;2022-07-22T15:28:25;35.40;44.80
61255;DHT22;47128;47.530;8.584;2022-07-22T15:30:51;35.60;43.80
61255;DHT22;47128;47.530;8.584;2022-07-22T15:33:17;35.70;43.70
61255;DHT22;47128;47.530;8.584;2022-07-22T15:35:45;35.70;43.60
61255;DHT22;47128;47.530;8.584;2022-07-22T15:38:10;35.90;44.00
61255;DHT22;47128;47.530;8.584;2022-07-22T15:40:38;35.90;44.20
61255;DHT22;47128;47.530;8.584;2022-07-22T15:43:05;35.90;44.50
61255;DHT22;47128;47.530;8.584;2022-07-22T15:45:34;35.70;43.80
61255;DHT22;47128;47.530;8.584;2022-07-22T15:48:02;35.50;44.20
61255;DHT22;47128;47.530;8.584;2022-07-22T15:50:28;35.50;45.60
61255;DHT22;47128;47.530;8.584;2022-07-22T15:52:54;35.70;44.90
61255;DHT22;47128;47.530;8.584;2022-07-22T15:55:19;35.80;44.10
61255;DHT22;47128;47.530;8.584;2022-07-22T15:57:45;35.90;43.90
61255;DHT22;47128;47.530;8.584;2022-07-22T16:00:31;35.90;43.50